sensor_id;sensor_type;location;lat;lon;timestamp;P1;durP1;ratioP1;P2;durP2;ratioP2
4583;SDS011;2304;47.606;12.186;2022-10-16T00:00:10;4.00;;;3.00;;
4583;SDS011;2304;47.606;12.186;2022-10-16T00:05:13;7.93;;;4.57;;
4583;SDS011;2304;47.606;12.186;2022-10-16T00:10:16;4.30;;;3.50;;
4583;SDS011;2304;47.606;12.186;2022-10-16T00:15:18;5.73;;;4.20;;
4583;SDS011;2304;47.606;12.186;2022-10-16T00:20:20;9.03;;;3.93;;
4583;SDS011;2304;47.606;12.186;2022-10-16T00:25:23;8.43;;;4.50;;
4583;SDS011;2304;47.606;12.186;2022-10-16T00:30:24;6.67;;;3.67;;
4583;SDS011;2304;47.606;12.186;2022-10-16T00:35:28;5.70;;;3.30;;
4583;SDS011;2304;47.606;12.186;2022-10-16T00:40:31;6.53;;;4.00;;
4583;SDS011;2304;47.606;12.186;2022-10-16T00:45:33;9.10;;;4.60;;
4583;SDS011;2304;47.606;12.186;2022-10-16T00:50:34;10.90;;;4.57;;
4583;SDS011;2304;47.606;12.186;2022-10-16T00:55:37;8.03;;;5.10;;
4583;SDS011;2304;47.606;12.186;2022-10-16T01:00:39;11.87;;;5.33;;
4583;SDS011;2304;47.606;12.186;2022-10-16T01:05:43;6.37;;;4.90;;
4583;SDS011;2304;47.606;12.186;2022-10-16T01:10:54;9.53;;;5.03;;
4583;SDS011;2304;47.606;12.186;2022-10-16T01:16:02;9.03;;;4.80;;
4583;SDS011;2304;47.606;12.186;2022-10-16T01:21:10;10.87;;;4.47;;
4583;SDS011;2304;47.606;12.186;2022-10-16T01:26:19;7.00;;;4.70;;
4583;SDS011;2304;47.606;12.186;2022-10-16T01:31:31;17.23;;;5.80;;
4583;SDS011;2304;47.606;12.186;2022-10-16T01:36:37;9.90;;;4.70;;
4583;SDS011;2304;47.606;12.186;2022-10-16T01:41:43;8.63;;;5.10;;
4583;SDS011;2304;47.606;12.186;2022-10-16T01:46:51;7.10;;;5.00;;
4583;SDS011;2304;47.606;12.186;2022-10-16T01:51:55;8.27;;;5.80;;
4583;SDS011;2304;47.606;12.186;2022-10-16T01:57:00;11.80;;;5.80;;
4583;SDS011;2304;47.606;12.186;2022-10-16T02:02:07;8.23;;;5.03;;
4583;SDS011;2304;47.606;12.186;2022-10-16T02:07:11;8.60;;;5.03;;
4583;SDS011;2304;47.606;12.186;2022-10-16T02:12:15;12.33;;;6.50;;
4583;SDS011;2304;47.606;12.186;2022-10-16T02:17:24;7.40;;;5.50;;
4583;SDS011;2304;47.606;12.186;2022-10-16T02:22:27;8.77;;;5.60;;
4583;SDS011;2304;47.606;12.186;2022-10-16T02:27:32;15.50;;;5.80;;
4583;SDS011;2304;47.606;12.186;2022-10-16T02:32:38;14.57;;;5.70;;
4583;SDS011;2304;47.606;12.186;2022-10-16T02:37:43;11.43;;;5.90;;
4583;SDS011;2304;47.606;12.186;2022-10-16T02:42:49;9.10;;;6.10;;
4583;SDS011;2304;47.606;12.186;2022-10-16T02:47:53;5.90;;;4.70;;
4583;SDS011;2304;47.606;12.186;2022-10-16T02:52:54;9.83;;;6.10;;
4583;SDS011;2304;47.606;12.186;2022-10-16T02:57:56;8.73;;;5.63;;
4583;SDS011;2304;47.606;12.186;2022-10-16T03:02:59;9.90;;;6.93;;
4583;SDS011;2304;47.606;12.186;2022-10-16T03:08:01;8.50;;;5.73;;
4583;SDS011;2304;47.606;12.186;2022-10-16T03:13:03;13.00;;;6.30;;
4583;SDS011;2304;47.606;12.186;2022-10-16T03:18:06;10.63;;;7.37;;
4583;SDS011;2304;47.606;12.186;2022-10-16T03:23:08;9.67;;;6.00;;
4583;SDS011;2304;47.606;12.186;2022-10-16T03:28:10;7.30;;;5.53;;
4583;SDS011;2304;47.606;12.186;2022-10-16T03:33:13;12.60;;;5.97;;
4583;SDS011;2304;47.606;12.186;2022-10-16T03:38:15;9.13;;;5.70;;
4583;SDS011;2304;47.606;12.186;2022-10-16T03:43:16;10.63;;;5.60;;
4583;SDS011;2304;47.606;12.186;2022-10-16T03:48:19;12.60;;;6.60;;
4583;SDS011;2304;47.606;12.186;2022-10-16T03:53:21;12.20;;;7.90;;
4583;SDS011;2304;47.606;12.186;2022-10-16T03:58:23;9.60;;;7.30;;
4583;SDS011;2304;47.606;12.186;2022-10-16T04:03:26;10.17;;;6.70;;
4583;SDS011;2304;47.606;12.186;2022-10-16T04:08:29;8.67;;;6.33;;
4583;SDS011;2304;47.606;12.186;2022-10-16T04:13:30;7.60;;;5.30;;
4583;SDS011;2304;47.606;12.186;2022-10-16T04:18:33;9.77;;;5.37;;
4583;SDS011;2304;47.606;12.186;2022-10-16T04:23:35;14.70;;;5.57;;
4583;SDS011;2304;47.606;12.186;2022-10-16T04:28:37;7.33;;;4.47;;
4583;SDS011;2304;47.606;12.186;2022-10-16T04:33:43;7.40;;;4.67;;
4583;SDS011;2304;47.606;12.186;2022-10-16T04:38:45;7.50;;;4.97;;
4583;SDS011;2304;47.606;12.186;2022-10-16T04:43:46;7.33;;;4.20;;
4583;SDS011;2304;47.606;12.186;2022-10-16T04:48:49;10.03;;;4.30;;
4583;SDS011;2304;47.606;12.186;2022-10-16T04:53:51;5.93;;;4.70;;
4583;SDS011;2304;47.606;12.186;2022-10-16T04:58:53;12.43;;;4.00;;
4583;SDS011;2304;47.606;12.186;2022-10-16T05:03:56;14.47;;;4.83;;
4583;SDS011;2304;47.606;12.186;2022-10-16T05:08:58;7.60;;;4.27;;
4583;SDS011;2304;47.606;12.186;2022-10-16T05:14:00;8.70;;;4.30;;
4583;SDS011;2304;47.606;12.186;2022-10-16T05:19:03;6.23;;;4.63;;
4583;SDS011;2304;47.606;12.186;2022-10-16T05:24:05;6.97;;;5.00;;
4583;SDS011;2304;47.606;12.186;2022-10-16T05:29:07;6.33;;;4.30;;
4583;SDS011;2304;47.606;12.186;2022-10-16T05:34:10;6.57;;;4.40;;
4583;SDS011;2304;47.606;12.186;2022-10-16T05:39:12;5.37;;;3.97;;
4583;SDS011;2304;47.606;12.186;2022-10-16T05:44:15;6.10;;;4.10;;
4583;SDS011;2304;47.606;12.186;2022-10-16T05:49:18;9.50;;;4.70;;
4583;SDS011;2304;47.606;12.186;2022-10-16T05:54:20;9.73;;;5.23;;
4583;SDS011;2304;47.606;12.186;2022-10-16T05:59:21;8.00;;;5.80;;
4583;SDS011;2304;47.606;12.186;2022-10-16T06:04:25;7.60;;;4.60;;
4583;SDS011;2304;47.606;12.186;2022-10-16T06:09:26;9.27;;;4.50;;
4583;SDS011;2304;47.606;12.186;2022-10-16T06:14:28;7.40;;;4.97;;
4583;SDS011;2304;47.606;12.186;2022-10-16T06:19:31;11.63;;;5.33;;
4583;SDS011;2304;47.606;12.186;2022-10-16T06:24:33;8.20;;;5.00;;
4583;SDS011;2304;47.606;12.186;2022-10-16T06:29:35;8.70;;;4.33;;
4583;SDS011;2304;47.606;12.186;2022-10-16T06:34:38;7.60;;;5.33;;
4583;SDS011;2304;47.606;12.186;2022-10-16T06:39:41;8.63;;;5.93;;
4583;SDS011;2304;47.606;12.186;2022-10-16T06:44:42;9.03;;;4.87;;
4583;SDS011;2304;47.606;12.186;2022-10-16T06:49:46;9.13;;;5.10;;
4583;SDS011;2304;47.606;12.186;2022-10-16T06:54:47;9.57;;;6.20;;
4583;SDS011;2304;47.606;12.186;2022-10-16T06:59:50;12.00;;;5.30;;
4583;SDS011;2304;47.606;12.186;2022-10-16T07:04:53;7.40;;;5.50;;
4583;SDS011;2304;47.606;12.186;2022-10-16T07:09:56;8.10;;;5.53;;
4583;SDS011;2304;47.606;12.186;2022-10-16T07:14:58;6.20;;;4.10;;
4583;SDS011;2304;47.606;12.186;2022-10-16T07:20:02;9.87;;;5.00;;
4583;SDS011;2304;47.606;12.186;2022-10-16T07:25:04;6.00;;;4.97;;
4583;SDS011;2304;47.606;12.186;2022-10-16T07:30:07;10.83;;;4.90;;
4583;SDS011;2304;47.606;12.186;2022-10-16T07:35:10;9.13;;;4.43;;
4583;SDS011;2304;47.606;12.186;2022-10-16T07:40:12;8.50;;;4.83;;
4583;SDS011;2304;47.606;12.186;2022-10-16T07:45:14;10.20;;;5.80;;
4583;SDS011;2304;47.606;12.186;2022-10-16T07:50:17;11.10;;;4.90;;
4583;SDS011;2304;47.606;12.186;2022-10-16T07:55:19;14.17;;;5.20;;
4583;SDS011;2304;47.606;12.186;2022-10-16T08:00:21;7.50;;;5.33;;
4583;SDS011;2304;47.606;12.186;2022-10-16T08:05:24;6.70;;;4.30;;
4583;SDS011;2304;47.606;12.186;2022-10-16T08:10:26;6.20;;;4.10;;
4583;SDS011;2304;47.606;12.186;2022-10-16T08:15:29;6.30;;;4.00;;
4583;SDS011;2304;47.606;12.186;2022-10-16T08:20:32;5.90;;;4.37;;
4583;SDS011;2304;47.606;12.186;2022-10-16T08:25:34;6.30;;;3.77;;
4583;SDS011;2304;47.606;12.186;2022-10-16T08:30:37;4.33;;;3.80;;
4583;SDS011;2304;47.606;12.186;2022-10-16T08:35:40;7.20;;;4.60;;
4583;SDS011;2304;47.606;12.186;2022-10-16T08:40:42;6.53;;;4.13;;
4583;SDS011;2304;47.606;12.186;2022-10-16T08:45:47;6.33;;;3.60;;
4583;SDS011;2304;47.606;12.186;2022-10-16T08:51:07;7.73;;;4.47;;
4583;SDS011;2304;47.606;12.186;2022-10-16T08:56:12;9.57;;;4.77;;
4583;SDS011;2304;47.606;12.186;2022-10-16T09:01:15;7.20;;;4.50;;
4583;SDS011;2304;47.606;12.186;2022-10-16T09:06:26;7.63;;;4.13;;
4583;SDS011;2304;47.606;12.186;2022-10-16T09:11:39;9.20;;;3.93;;
4583;SDS011;2304;47.606;12.186;2022-10-16T09:16:48;5.07;;;3.27;;
4583;SDS011;2304;47.606;12.186;2022-10-16T09:21:57;8.10;;;3.60;;
4583;SDS011;2304;47.606;12.186;2022-10-16T09:27:03;4.20;;;3.20;;
4583;SDS011;2304;47.606;12.186;2022-10-16T09:32:10;7.73;;;3.73;;
4583;SDS011;2304;47.606;12.186;2022-10-16T09:37:17;5.20;;;3.60;;
4583;SDS011;2304;47.606;12.186;2022-10-16T09:42:21;5.70;;;3.50;;
4583;SDS011;2304;47.606;12.186;2022-10-16T09:47:28;6.63;;;3.90;;
4583;SDS011;2304;47.606;12.186;2022-10-16T09:52:33;5.30;;;3.40;;
4583;SDS011;2304;47.606;12.186;2022-10-16T09:57:34;6.30;;;3.43;;
4583;SDS011;2304;47.606;12.186;2022-10-16T10:02:36;5.90;;;3.50;;
4583;SDS011;2304;47.606;12.186;2022-10-16T10:07:42;5.43;;;4.00;;
4583;SDS011;2304;47.606;12.186;2022-10-16T10:12:45;7.97;;;3.40;;
4583;SDS011;2304;47.606;12.186;2022-10-16T10:17:48;4.23;;;3.27;;
4583;SDS011;2304;47.606;12.186;2022-10-16T10:22:52;5.07;;;3.50;;
4583;SDS011;2304;47.606;12.186;2022-10-16T10:28:07;19.00;;;6.77;;
4583;SDS011;2304;47.606;12.186;2022-10-16T10:33:29;4.53;;;3.50;;
4583;SDS011;2304;47.606;12.186;2022-10-16T10:38:41;13.33;;;4.30;;
4583;SDS011;2304;47.606;12.186;2022-10-16T10:43:54;32.23;;;13.47;;
4583;SDS011;2304;47.606;12.186;2022-10-16T10:49:13;24.83;;;9.47;;
4583;SDS011;2304;47.606;12.186;2022-10-16T10:54:28;7.80;;;4.63;;
4583;SDS011;2304;47.606;12.186;2022-10-16T10:59:43;6.60;;;4.80;;
4583;SDS011;2304;47.606;12.186;2022-10-16T11:05:21;9.67;;;5.53;;
4583;SDS011;2304;47.606;12.186;2022-10-16T11:10:32;12.37;;;6.90;;
4583;SDS011;2304;47.606;12.186;2022-10-16T11:15:41;14.77;;;7.27;;
4583;SDS011;2304;47.606;12.186;2022-10-16T11:20:49;9.00;;;5.50;;
4583;SDS011;2304;47.606;12.186;2022-10-16T11:25:56;15.13;;;7.83;;
4583;SDS011;2304;47.606;12.186;2022-10-16T11:31:02;13.70;;;8.13;;
4583;SDS011;2304;47.606;12.186;2022-10-16T11:36:11;7.20;;;5.10;;
4583;SDS011;2304;47.606;12.186;2022-10-16T11:41:20;8.33;;;5.33;;
4583;SDS011;2304;47.606;12.186;2022-10-16T11:46:27;7.10;;;3.37;;
4583;SDS011;2304;47.606;12.186;2022-10-16T11:51:33;8.13;;;5.10;;
4583;SDS011;2304;47.606;12.186;2022-10-16T11:56:40;7.17;;;4.40;;
4583;SDS011;2304;47.606;12.186;2022-10-16T12:01:46;10.77;;;5.83;;
4583;SDS011;2304;47.606;12.186;2022-10-16T12:06:55;7.70;;;4.87;;
4583;SDS011;2304;47.606;12.186;2022-10-16T12:12:02;6.50;;;4.63;;
4583;SDS011;2304;47.606;12.186;2022-10-16T12:17:04;7.23;;;4.60;;
4583;SDS011;2304;47.606;12.186;2022-10-16T12:22:25;7.33;;;4.03;;
4583;SDS011;2304;47.606;12.186;2022-10-16T12:27:31;8.67;;;5.10;;
4583;SDS011;2304;47.606;12.186;2022-10-16T12:32:34;5.40;;;3.80;;
4583;SDS011;2304;47.606;12.186;2022-10-16T12:37:39;7.33;;;4.87;;
4583;SDS011;2304;47.606;12.186;2022-10-16T12:42:42;4.90;;;3.67;;
4583;SDS011;2304;47.606;12.186;2022-10-16T12:47:48;6.23;;;3.90;;
4583;SDS011;2304;47.606;12.186;2022-10-16T12:52:51;5.37;;;3.33;;
4583;SDS011;2304;47.606;12.186;2022-10-16T12:58:00;4.10;;;3.23;;
4583;SDS011;2304;47.606;12.186;2022-10-16T13:03:24;3.40;;;2.97;;
4583;SDS011;2304;47.606;12.186;2022-10-16T13:08:43;4.33;;;3.00;;
4583;SDS011;2304;47.606;12.186;2022-10-16T13:14:01;3.53;;;3.00;;
4583;SDS011;2304;47.606;12.186;2022-10-16T13:19:22;4.50;;;3.73;;
4583;SDS011;2304;47.606;12.186;2022-10-16T13:24:38;5.63;;;3.83;;
4583;SDS011;2304;47.606;12.186;2022-10-16T13:29:53;6.60;;;3.73;;
4583;SDS011;2304;47.606;12.186;2022-10-16T13:35:01;5.10;;;3.40;;
4583;SDS011;2304;47.606;12.186;2022-10-16T13:40:09;4.20;;;3.20;;
4583;SDS011;2304;47.606;12.186;2022-10-16T13:45:22;5.40;;;3.27;;
4583;SDS011;2304;47.606;12.186;2022-10-16T13:50:25;3.73;;;3.20;;
4583;SDS011;2304;47.606;12.186;2022-10-16T13:55:27;4.28;;;3.08;;
4583;SDS011;2304;47.606;12.186;2022-10-16T14:00:30;4.10;;;3.23;;
4583;SDS011;2304;47.606;12.186;2022-10-16T14:05:32;5.83;;;3.00;;
4583;SDS011;2304;47.606;12.186;2022-10-16T14:10:35;5.10;;;3.83;;
4583;SDS011;2304;47.606;12.186;2022-10-16T14:15:38;5.00;;;3.10;;
4583;SDS011;2304;47.606;12.186;2022-10-16T14:20:40;5.00;;;3.47;;
4583;SDS011;2304;47.606;12.186;2022-10-16T14:25:42;5.70;;;3.30;;
4583;SDS011;2304;47.606;12.186;2022-10-16T14:30:52;9.00;;;3.43;;
4583;SDS011;2304;47.606;12.186;2022-10-16T14:36:00;5.10;;;3.40;;
4583;SDS011;2304;47.606;12.186;2022-10-16T14:41:04;5.00;;;3.60;;
4583;SDS011;2304;47.606;12.186;2022-10-16T14:46:12;7.23;;;3.60;;
4583;SDS011;2304;47.606;12.186;2022-10-16T14:51:15;6.13;;;4.13;;
4583;SDS011;2304;47.606;12.186;2022-10-16T14:56:19;6.07;;;4.80;;
4583;SDS011;2304;47.606;12.186;2022-10-16T15:01:23;5.87;;;4.30;;
4583;SDS011;2304;47.606;12.186;2022-10-16T15:06:25;11.40;;;6.97;;
4583;SDS011;2304;47.606;12.186;2022-10-16T15:11:27;13.80;;;8.33;;
4583;SDS011;2304;47.606;12.186;2022-10-16T15:16:31;9.50;;;5.37;;
4583;SDS011;2304;47.606;12.186;2022-10-16T15:21:33;13.30;;;4.80;;
4583;SDS011;2304;47.606;12.186;2022-10-16T15:26:35;11.93;;;6.90;;
4583;SDS011;2304;47.606;12.186;2022-10-16T15:31:38;11.50;;;7.40;;
4583;SDS011;2304;47.606;12.186;2022-10-16T15:36:42;12.33;;;6.73;;
4583;SDS011;2304;47.606;12.186;2022-10-16T15:41:44;14.90;;;5.97;;
4583;SDS011;2304;47.606;12.186;2022-10-16T15:46:51;13.83;;;6.60;;
4583;SDS011;2304;47.606;12.186;2022-10-16T15:51:56;13.07;;;5.90;;
4583;SDS011;2304;47.606;12.186;2022-10-16T15:56:58;10.43;;;5.87;;
4583;SDS011;2304;47.606;12.186;2022-10-16T16:02:01;13.20;;;7.70;;
4583;SDS011;2304;47.606;12.186;2022-10-16T16:07:03;15.33;;;6.73;;
4583;SDS011;2304;47.606;12.186;2022-10-16T16:12:07;13.50;;;7.13;;
4583;SDS011;2304;47.606;12.186;2022-10-16T16:17:10;5.80;;;4.30;;
4583;SDS011;2304;47.606;12.186;2022-10-16T16:22:12;9.70;;;5.97;;
4583;SDS011;2304;47.606;12.186;2022-10-16T16:27:14;7.80;;;4.20;;
4583;SDS011;2304;47.606;12.186;2022-10-16T16:32:17;10.93;;;5.13;;
4583;SDS011;2304;47.606;12.186;2022-10-16T16:37:19;8.60;;;4.40;;
4583;SDS011;2304;47.606;12.186;2022-10-16T16:42:20;16.17;;;4.67;;
4583;SDS011;2304;47.606;12.186;2022-10-16T16:47:25;13.60;;;6.13;;
4583;SDS011;2304;47.606;12.186;2022-10-16T16:52:28;6.23;;;4.17;;
4583;SDS011;2304;47.606;12.186;2022-10-16T16:57:30;12.37;;;5.70;;
4583;SDS011;2304;47.606;12.186;2022-10-16T17:02:33;6.63;;;3.70;;
4583;SDS011;2304;47.606;12.186;2022-10-16T17:07:35;11.60;;;4.70;;
4583;SDS011;2304;47.606;12.186;2022-10-16T17:12:40;12.53;;;6.23;;
4583;SDS011;2304;47.606;12.186;2022-10-16T17:17:43;10.30;;;4.70;;
4583;SDS011;2304;47.606;12.186;2022-10-16T17:22:45;6.90;;;3.83;;
4583;SDS011;2304;47.606;12.186;2022-10-16T17:27:47;7.93;;;3.63;;
4583;SDS011;2304;47.606;12.186;2022-10-16T17:32:50;13.13;;;4.00;;
4583;SDS011;2304;47.606;12.186;2022-10-16T17:37:52;11.10;;;4.10;;
4583;SDS011;2304;47.606;12.186;2022-10-16T17:42:54;9.87;;;4.03;;
4583;SDS011;2304;47.606;12.186;2022-10-16T17:47:58;6.27;;;4.10;;
4583;SDS011;2304;47.606;12.186;2022-10-16T17:53:00;11.17;;;3.63;;
4583;SDS011;2304;47.606;12.186;2022-10-16T17:58:01;6.03;;;2.97;;
4583;SDS011;2304;47.606;12.186;2022-10-16T18:03:05;7.20;;;3.60;;
4583;SDS011;2304;47.606;12.186;2022-10-16T18:08:06;11.40;;;3.67;;
4583;SDS011;2304;47.606;12.186;2022-10-16T18:13:08;7.67;;;4.70;;
4583;SDS011;2304;47.606;12.186;2022-10-16T18:18:12;8.90;;;4.30;;
4583;SDS011;2304;47.606;12.186;2022-10-16T18:23:14;6.23;;;3.37;;
4583;SDS011;2304;47.606;12.186;2022-10-16T18:28:15;12.57;;;4.30;;
4583;SDS011;2304;47.606;12.186;2022-10-16T18:33:19;4.87;;;3.50;;
4583;SDS011;2304;47.606;12.186;2022-10-16T18:38:20;11.80;;;3.93;;
4583;SDS011;2304;47.606;12.186;2022-10-16T18:43:22;12.50;;;3.57;;
4583;SDS011;2304;47.606;12.186;2022-10-16T18:48:26;7.20;;;3.37;;
4583;SDS011;2304;47.606;12.186;2022-10-16T18:53:29;5.70;;;3.30;;
4583;SDS011;2304;47.606;12.186;2022-10-16T18:58:32;7.37;;;3.57;;
4583;SDS011;2304;47.606;12.186;2022-10-16T19:03:35;9.70;;;3.47;;
4583;SDS011;2304;47.606;12.186;2022-10-16T19:08:37;12.57;;;3.60;;
4583;SDS011;2304;47.606;12.186;2022-10-16T19:13:40;13.73;;;4.17;;
4583;SDS011;2304;47.606;12.186;2022-10-16T19:18:43;7.77;;;4.30;;
4583;SDS011;2304;47.606;12.186;2022-10-16T19:23:45;9.60;;;4.70;;
4583;SDS011;2304;47.606;12.186;2022-10-16T19:28:50;14.17;;;5.50;;
4583;SDS011;2304;47.606;12.186;2022-10-16T19:33:55;13.57;;;5.37;;
4583;SDS011;2304;47.606;12.186;2022-10-16T19:38:59;16.93;;;4.77;;
4583;SDS011;2304;47.606;12.186;2022-10-16T19:44:03;23.03;;;5.93;;
4583;SDS011;2304;47.606;12.186;2022-10-16T19:49:08;13.23;;;5.13;;
4583;SDS011;2304;47.606;12.186;2022-10-16T19:54:12;14.53;;;5.43;;
4583;SDS011;2304;47.606;12.186;2022-10-16T19:59:14;13.37;;;4.37;;
4583;SDS011;2304;47.606;12.186;2022-10-16T20:04:19;13.00;;;5.13;;
4583;SDS011;2304;47.606;12.186;2022-10-16T20:09:21;12.50;;;4.93;;
4583;SDS011;2304;47.606;12.186;2022-10-16T20:14:23;10.87;;;4.63;;
4583;SDS011;2304;47.606;12.186;2022-10-16T20:19:26;6.60;;;3.63;;
4583;SDS011;2304;47.606;12.186;2022-10-16T20:24:28;11.87;;;4.60;;
4583;SDS011;2304;47.606;12.186;2022-10-16T20:29:29;10.73;;;4.70;;
4583;SDS011;2304;47.606;12.186;2022-10-16T20:34:33;18.40;;;5.37;;
4583;SDS011;2304;47.606;12.186;2022-10-16T20:39:34;11.87;;;3.60;;
4583;SDS011;2304;47.606;12.186;2022-10-16T20:44:36;6.63;;;3.77;;
4583;SDS011;2304;47.606;12.186;2022-10-16T20:49:40;11.00;;;3.90;;
4583;SDS011;2304;47.606;12.186;2022-10-16T20:54:43;8.00;;;3.93;;
4583;SDS011;2304;47.606;12.186;2022-10-16T20:59:45;13.03;;;3.90;;
4583;SDS011;2304;47.606;12.186;2022-10-16T21:04:55;8.00;;;4.37;;
4583;SDS011;2304;47.606;12.186;2022-10-16T21:09:57;6.00;;;3.57;;
4583;SDS011;2304;47.606;12.186;2022-10-16T21:14:59;5.43;;;3.77;;
4583;SDS011;2304;47.606;12.186;2022-10-16T21:20:02;7.70;;;3.40;;
4583;SDS011;2304;47.606;12.186;2022-10-16T21:25:05;5.17;;;3.40;;
4583;SDS011;2304;47.606;12.186;2022-10-16T21:30:07;6.03;;;3.60;;
4583;SDS011;2304;47.606;12.186;2022-10-16T21:35:11;6.97;;;3.93;;
4583;SDS011;2304;47.606;12.186;2022-10-16T21:40:13;6.93;;;3.40;;
4583;SDS011;2304;47.606;12.186;2022-10-16T21:45:15;6.17;;;3.17;;
4583;SDS011;2304;47.606;12.186;2022-10-16T21:50:18;6.13;;;3.20;;
4583;SDS011;2304;47.606;12.186;2022-10-16T21:55:20;13.33;;;4.00;;
4583;SDS011;2304;47.606;12.186;2022-10-16T22:00:21;6.90;;;3.33;;
4583;SDS011;2304;47.606;12.186;2022-10-16T22:05:25;5.63;;;3.53;;
4583;SDS011;2304;47.606;12.186;2022-10-16T22:10:26;8.10;;;3.50;;
4583;SDS011;2304;47.606;12.186;2022-10-16T22:15:28;4.80;;;3.67;;
4583;SDS011;2304;47.606;12.186;2022-10-16T22:20:31;5.07;;;3.63;;
4583;SDS011;2304;47.606;12.186;2022-10-16T22:25:33;5.93;;;3.77;;
4583;SDS011;2304;47.606;12.186;2022-10-16T22:30:35;8.53;;;3.60;;
4583;SDS011;2304;47.606;12.186;2022-10-16T22:35:39;8.80;;;3.23;;
4583;SDS011;2304;47.606;12.186;2022-10-16T22:40:41;8.53;;;3.53;;
4583;SDS011;2304;47.606;12.186;2022-10-16T22:45:42;6.60;;;3.20;;
4583;SDS011;2304;47.606;12.186;2022-10-16T22:50:46;8.23;;;4.23;;
4583;SDS011;2304;47.606;12.186;2022-10-16T22:55:48;6.53;;;4.03;;
4583;SDS011;2304;47.606;12.186;2022-10-16T23:00:50;6.03;;;3.83;;
4583;SDS011;2304;47.606;12.186;2022-10-16T23:05:53;7.87;;;4.10;;
4583;SDS011;2304;47.606;12.186;2022-10-16T23:10:55;8.93;;;3.90;;
4583;SDS011;2304;47.606;12.186;2022-10-16T23:15:59;9.70;;;4.67;;
4583;SDS011;2304;47.606;12.186;2022-10-16T23:21:05;7.10;;;3.63;;
4583;SDS011;2304;47.606;12.186;2022-10-16T23:26:08;4.50;;;3.40;;
4583;SDS011;2304;47.606;12.186;2022-10-16T23:31:12;4.90;;;3.80;;
4583;SDS011;2304;47.606;12.186;2022-10-16T23:36:16;7.93;;;3.90;;
4583;SDS011;2304;47.606;12.186;2022-10-16T23:41:20;4.60;;;3.30;;
4583;SDS011;2304;47.606;12.186;2022-10-16T23:46:22;11.90;;;4.37;;
4583;SDS011;2304;47.606;12.186;2022-10-16T23:51:25;11.77;;;3.77;;
4583;SDS011;2304;47.606;12.186;2022-10-16T23:56:27;5.23;;;3.70;;
